createdAt,value
2023-01-29T00:01:54.767Z,71.58
2023-01-29T00:04:46.928Z,71.61
2023-01-29T00:07:39.063Z,71.24
2023-01-29T00:10:31.411Z,70.85
2023-01-29T00:13:23.566Z,70.76
2023-01-29T00:16:16.111Z,70.55
2023-01-29T00:19:08.314Z,70.56
2023-01-29T00:22:00.527Z,70.45
2023-01-29T00:24:52.571Z,70.39
2023-01-29T00:27:44.989Z,70.46
2023-01-29T00:30:38.686Z,70.40
2023-01-29T00:33:31.537Z,70.55
2023-01-29T00:36:24.894Z,70.62
2023-01-29T00:39:17.336Z,70.79
2023-01-29T00:42:27.037Z,70.72
2023-01-29T00:45:19.463Z,70.71
2023-01-29T00:48:11.555Z,70.55
2023-01-29T00:51:04.193Z,70.73
2023-01-29T00:53:58.242Z,70.63
2023-01-29T00:56:50.314Z,70.72
2023-01-29T00:59:42.430Z,70.65
2023-01-29T01:02:52.081Z,70.51
2023-01-29T01:05:45.476Z,70.30
2023-01-29T01:08:55.261Z,70.18
2023-01-29T01:11:47.434Z,70.00
2023-01-29T01:14:43.245Z,70.03
2023-01-29T01:17:35.504Z,69.97
2023-01-29T01:20:28.778Z,69.94
2023-01-29T01:23:21.464Z,69.87
2023-01-29T01:26:13.750Z,69.90
2023-01-29T01:29:05.951Z,69.97
2023-01-29T01:31:58.143Z,70.13
2023-01-29T01:34:50.227Z,70.21
2023-01-29T01:37:42.864Z,70.14
2023-01-29T01:40:35.051Z,70.21
2023-01-29T01:43:27.213Z,70.19
2023-01-29T01:46:19.641Z,70.24
2023-01-29T01:49:16.527Z,70.18
2023-01-29T01:52:09.511Z,70.18
2023-01-29T01:55:02.305Z,70.32
2023-01-29T01:58:01.008Z,70.17
2023-01-29T02:00:38.278Z,70.05
2023-01-29T02:03:50.073Z,70.18
2023-01-29T02:07:02.068Z,70.00
2023-01-29T02:09:59.234Z,70.02
2023-01-29T02:12:52.332Z,69.91
2023-01-29T02:15:46.780Z,70.10
2023-01-29T02:18:39.467Z,69.82
2023-01-29T02:21:42.646Z,69.70
2023-01-29T02:25:10.859Z,69.68
2023-01-29T02:28:33.231Z,69.58
2023-01-29T02:31:36.027Z,69.50
2023-01-29T02:34:52.883Z,69.39
2023-01-29T02:37:52.311Z,69.50
2023-01-29T02:40:48.101Z,69.59
2023-01-29T02:43:46.903Z,69.51
2023-01-29T02:46:45.723Z,69.58
2023-01-29T02:49:25.481Z,69.47
2023-01-29T02:52:21.217Z,69.42
2023-01-29T02:55:19.023Z,69.12
2023-01-29T02:58:17.749Z,69.04
2023-01-29T03:01:14.406Z,69.04
2023-01-29T03:04:12.325Z,68.76
2023-01-29T03:07:10.129Z,68.65
2023-01-29T03:10:05.669Z,68.48
2023-01-29T03:13:03.577Z,68.48
2023-01-29T03:16:05.448Z,68.32
2023-01-29T03:19:02.668Z,68.24
2023-01-29T03:22:00.157Z,68.16
2023-01-29T03:25:12.826Z,68.06
2023-01-29T03:28:25.755Z,68.03
2023-01-29T03:31:26.357Z,67.84
2023-01-29T03:34:24.470Z,67.63
2023-01-29T03:37:25.252Z,67.53
2023-01-29T03:40:18.619Z,67.53
2023-01-29T03:43:16.496Z,67.63
2023-01-29T03:46:18.655Z,67.49
2023-01-29T03:49:21.345Z,67.20
2023-01-29T03:52:16.389Z,67.30
2023-01-29T03:55:16.257Z,67.42
2023-01-29T03:58:18.284Z,67.37
2023-01-29T04:01:17.858Z,67.15
2023-01-29T04:04:16.523Z,67.27
2023-01-29T04:07:13.473Z,67.15
2023-01-29T04:10:10.275Z,67.08
2023-01-29T04:13:06.847Z,66.92
2023-01-29T04:16:02.115Z,66.91
2023-01-29T04:18:55.861Z,66.97
2023-01-29T04:21:50.382Z,66.73
2023-01-29T04:24:43.509Z,66.70
2023-01-29T04:27:44.303Z,66.68
2023-01-29T04:30:43.317Z,66.64
2023-01-29T04:33:43.925Z,66.51
2023-01-29T04:36:42.568Z,66.43
2023-01-29T04:39:45.246Z,66.20
2023-01-29T04:42:45.723Z,66.24
2023-01-29T04:45:47.730Z,66.31
2023-01-29T04:48:51.087Z,66.26
2023-01-29T04:51:50.873Z,65.75
2023-01-29T04:54:53.473Z,66.07
2023-01-29T04:57:51.752Z,65.63
2023-01-29T05:00:46.137Z,65.86
2023-01-29T05:03:41.966Z,66.20
2023-01-29T05:06:24.960Z,66.12
2023-01-29T05:09:19.937Z,66.30
2023-01-29T05:12:15.536Z,66.10
2023-01-29T05:15:16.989Z,66.10
2023-01-29T05:18:10.174Z,66.06
2023-01-29T05:21:07.416Z,66.19
2023-01-29T05:24:17.205Z,66.34
2023-01-29T05:27:30.176Z,66.42
2023-01-29T05:30:22.719Z,66.31
2023-01-29T05:32:57.733Z,66.14
2023-01-29T05:35:33.246Z,66.28
2023-01-29T05:38:25.634Z,66.42
2023-01-29T05:41:17.733Z,66.37
2023-01-29T05:44:10.631Z,66.22
2023-01-29T05:47:03.627Z,66.36
2023-01-29T05:49:55.753Z,66.40
2023-01-29T05:52:47.837Z,66.44
2023-01-29T05:55:39.951Z,66.53
2023-01-29T05:58:32.788Z,66.67
2023-01-29T06:01:26.987Z,66.53
2023-01-29T06:04:19.150Z,66.46
2023-01-29T06:07:11.335Z,66.55
2023-01-29T06:10:03.472Z,66.36
2023-01-29T06:12:55.537Z,66.32
2023-01-29T06:15:47.754Z,66.46
2023-01-29T06:18:40.500Z,66.33
2023-01-29T06:21:32.564Z,66.48
2023-01-29T06:24:24.625Z,66.36
2023-01-29T06:27:16.777Z,66.35
2023-01-29T06:30:10.807Z,66.39
2023-01-29T06:33:02.978Z,66.70
2023-01-29T06:35:59.740Z,66.56
2023-01-29T06:38:52.013Z,66.61
2023-01-29T06:41:45.352Z,66.56
2023-01-29T06:44:37.214Z,66.71
2023-01-29T06:47:29.898Z,66.77
2023-01-29T06:50:22.175Z,68.24
2023-01-29T06:53:14.649Z,68.46
2023-01-29T06:55:51.972Z,68.28
2023-01-29T06:58:44.113Z,67.44
2023-01-29T07:01:36.834Z,67.25
2023-01-29T07:04:29.134Z,67.33
2023-01-29T07:07:13.253Z,67.23
2023-01-29T07:10:05.989Z,67.09
2023-01-29T07:12:59.757Z,67.28
2023-01-29T07:15:51.832Z,67.44
2023-01-29T07:18:43.909Z,67.70
2023-01-29T07:21:35.995Z,67.81
2023-01-29T07:24:28.293Z,67.95
2023-01-29T07:27:20.430Z,68.51
2023-01-29T07:30:14.812Z,69.18
2023-01-29T07:33:09.099Z,69.66
2023-01-29T07:36:01.140Z,70.12
2023-01-29T07:38:53.748Z,70.25
2023-01-29T07:41:45.930Z,70.31
2023-01-29T07:44:38.128Z,70.16
2023-01-29T07:47:10.263Z,70.37
2023-01-29T07:50:02.442Z,70.30
2023-01-29T07:52:56.818Z,70.75
2023-01-29T07:55:48.913Z,70.66
2023-01-29T07:58:41.040Z,70.52
2023-01-29T08:01:33.186Z,70.51
2023-01-29T08:04:25.622Z,70.41
2023-01-29T08:07:17.666Z,70.08
2023-01-29T08:10:11.007Z,69.76
2023-01-29T08:12:46.130Z,69.61
2023-01-29T08:18:50.612Z,69.50
2023-01-29T08:21:42.755Z,69.61
2023-01-29T08:24:47.731Z,69.42
2023-01-29T08:27:46.348Z,69.34
2023-01-29T08:30:38.704Z,69.12
2023-01-29T08:33:38.704Z,68.68
2023-01-29T08:36:31.469Z,68.46
2023-01-29T08:39:06.269Z,68.31
2023-01-29T08:41:41.009Z,68.46
2023-01-29T08:44:33.250Z,68.38
2023-01-29T08:47:26.221Z,68.18
2023-01-29T08:50:20.458Z,68.39
2023-01-29T08:53:00.400Z,68.43
2023-01-29T08:55:53.036Z,68.38
2023-01-29T08:58:45.300Z,68.03
2023-01-29T09:01:37.543Z,67.74
2023-01-29T09:04:29.637Z,67.61
2023-01-29T09:07:21.858Z,67.39
2023-01-29T09:10:14.480Z,66.44
2023-01-29T09:13:06.710Z,65.94
2023-01-29T09:16:02.100Z,65.49
2023-01-29T09:18:36.289Z,64.63
2023-01-29T09:21:28.231Z,64.59
2023-01-29T09:24:00.295Z,64.02
2023-01-29T09:26:52.407Z,63.75
2023-01-29T09:29:44.547Z,63.42
2023-01-29T09:32:52.548Z,63.18
2023-01-29T09:35:47.853Z,62.85
2023-01-29T09:38:39.926Z,62.53
2023-01-29T09:41:52.405Z,62.39
2023-01-29T09:44:31.273Z,62.49
2023-01-29T09:47:28.104Z,62.73
2023-01-29T09:50:07.028Z,62.27
2023-01-29T09:52:50.512Z,62.06
2023-01-29T09:55:49.516Z,62.30
2023-01-29T09:58:44.546Z,62.71
2023-01-29T10:01:45.064Z,62.47
2023-01-29T10:05:14.308Z,62.14
2023-01-29T10:08:27.836Z,62.27
2023-01-29T10:11:28.586Z,62.14
2023-01-29T10:14:28.893Z,62.24
2023-01-29T10:17:35.672Z,62.13
2023-01-29T10:20:39.337Z,62.02
2023-01-29T10:23:28.162Z,62.24
2023-01-29T10:26:03.494Z,62.30
2023-01-29T10:28:47.575Z,62.27
2023-01-29T10:31:41.985Z,62.03
2023-01-29T10:34:41.038Z,62.03
2023-01-29T10:37:21.518Z,61.95
2023-01-29T10:40:23.605Z,61.55
2023-01-29T10:43:21.790Z,61.05
2023-01-29T10:46:26.040Z,60.67
2023-01-29T10:49:30.763Z,60.34
2023-01-29T10:52:27.324Z,60.37
2023-01-29T10:55:35.056Z,59.86
2023-01-29T10:58:35.782Z,59.93
2023-01-29T11:01:27.978Z,60.01
2023-01-29T11:04:20.271Z,59.71
2023-01-29T11:07:13.042Z,59.85
2023-01-29T11:10:12.139Z,59.43
2023-01-29T11:13:06.354Z,59.46
2023-01-29T11:15:58.562Z,58.88
2023-01-29T11:19:01.838Z,58.14
2023-01-29T11:21:58.037Z,58.15
2023-01-29T11:25:11.558Z,58.40
2023-01-29T11:28:05.321Z,57.94
2023-01-29T11:30:58.362Z,56.57
2023-01-29T11:33:51.806Z,55.58
2023-01-29T11:36:44.996Z,55.14
2023-01-29T11:39:44.335Z,55.09
2023-01-29T11:42:36.515Z,55.47
2023-01-29T11:45:34.860Z,55.79
2023-01-29T11:48:33.912Z,55.41
2023-01-29T11:51:35.089Z,55.93
2023-01-29T11:54:20.871Z,56.12
2023-01-29T11:57:34.077Z,56.44
2023-01-29T12:00:22.047Z,56.79
2023-01-29T12:03:24.992Z,55.14
2023-01-29T12:06:22.984Z,54.23
2023-01-29T12:09:10.789Z,54.13
2023-01-29T12:12:28.784Z,53.99
2023-01-29T12:15:25.566Z,54.60
2023-01-29T12:18:30.924Z,54.59
2023-01-29T12:21:35.015Z,53.90
2023-01-29T12:24:43.511Z,54.16
2023-01-29T12:27:40.431Z,54.40
2023-01-29T12:30:39.560Z,53.27
2023-01-29T12:33:39.788Z,52.73
2023-01-29T12:36:39.697Z,52.14
2023-01-29T12:39:21.303Z,52.03
2023-01-29T12:42:19.065Z,51.78
2023-01-29T12:45:18.171Z,51.82
2023-01-29T12:48:14.946Z,52.01
2023-01-29T12:51:12.677Z,52.27
2023-01-29T12:54:01.113Z,52.44
2023-01-29T12:56:57.115Z,52.38
2023-01-29T12:59:54.013Z,52.94
2023-01-29T13:02:41.658Z,53.07
2023-01-29T13:05:40.199Z,53.25
2023-01-29T13:08:36.947Z,53.48
2023-01-29T13:11:37.816Z,53.52
2023-01-29T13:14:37.394Z,53.77
2023-01-29T13:17:35.854Z,53.85
2023-01-29T13:20:32.884Z,53.84
2023-01-29T13:23:29.516Z,53.97
2023-01-29T13:26:05.673Z,54.35
2023-01-29T13:28:58.838Z,54.61
2023-01-29T13:31:53.543Z,54.17
2023-01-29T13:34:50.502Z,54.48
2023-01-29T13:37:49.436Z,54.69
2023-01-29T13:41:02.459Z,54.59
2023-01-29T13:43:54.742Z,54.70
2023-01-29T13:46:54.857Z,54.41
2023-01-29T13:49:56.444Z,54.50
2023-01-29T13:52:57.063Z,54.92
2023-01-29T13:55:49.544Z,55.25
2023-01-29T13:58:57.853Z,55.17
2023-01-29T14:02:23.557Z,55.33
2023-01-29T14:05:40.158Z,55.62
2023-01-29T14:08:45.222Z,55.59
2023-01-29T14:11:38.518Z,55.79
2023-01-29T14:15:06.902Z,55.95
2023-01-29T14:18:26.129Z,56.34
2023-01-29T14:21:28.438Z,56.62
2023-01-29T14:24:23.724Z,56.89
2023-01-29T14:27:25.235Z,56.94
2023-01-29T14:30:20.687Z,57.12
2023-01-29T14:33:29.384Z,57.51
2023-01-29T14:36:22.572Z,57.52
2023-01-29T14:39:34.026Z,58.03
2023-01-29T14:42:30.392Z,58.18
2023-01-29T14:45:25.633Z,58.33
2023-01-29T14:48:39.793Z,58.54
2023-01-29T14:51:38.485Z,58.57
2023-01-29T14:54:34.015Z,58.76
2023-01-29T14:57:27.159Z,59.04
2023-01-29T15:00:27.578Z,58.97
2023-01-29T15:03:29.687Z,59.19
2023-01-29T15:06:33.547Z,59.45
2023-01-29T15:09:37.110Z,59.48
2023-01-29T15:12:34.646Z,59.63
2023-01-29T15:15:38.084Z,59.73
2023-01-29T15:18:36.657Z,60.01
2023-01-29T15:21:28.792Z,60.13
2023-01-29T15:24:20.873Z,60.32
2023-01-29T15:26:56.726Z,60.54
2023-01-29T15:29:56.429Z,60.60
2023-01-29T15:32:49.310Z,60.70
2023-01-29T15:35:43.525Z,60.60
2023-01-29T15:38:36.067Z,60.79
2023-01-29T15:41:28.210Z,60.82
2023-01-29T15:44:24.559Z,60.79
2023-01-29T15:47:17.460Z,60.78
2023-01-29T15:50:13.841Z,60.84
2023-01-29T15:52:49.831Z,60.90
2023-01-29T15:55:42.751Z,60.92
2023-01-29T15:58:35.823Z,60.98
2023-01-29T16:01:31.090Z,61.04
2023-01-29T16:04:26.797Z,60.95
2023-01-29T16:07:19.021Z,61.14
2023-01-29T16:10:18.625Z,61.07
2023-01-29T16:13:18.526Z,61.23
2023-01-29T16:16:23.111Z,61.29
2023-01-29T16:19:24.996Z,61.47
2023-01-29T16:22:17.155Z,61.41
2023-01-29T16:25:13.611Z,61.38
2023-01-29T16:28:10.958Z,61.43
2023-01-29T16:31:04.642Z,61.56
2023-01-29T16:33:58.928Z,61.75
2023-01-29T16:36:53.514Z,61.81
2023-01-29T16:39:49.352Z,61.93
2023-01-29T16:42:42.025Z,62.00
2023-01-29T16:48:31.999Z,62.13
2023-01-29T16:51:29.715Z,62.11
2023-01-29T16:54:25.669Z,62.22
2023-01-29T16:57:06.781Z,62.18
2023-01-29T17:00:01.421Z,62.14
2023-01-29T17:02:57.151Z,62.24
2023-01-29T17:05:50.954Z,62.35
2023-01-29T17:08:45.280Z,62.31
2023-01-29T17:11:41.796Z,62.31
2023-01-29T17:14:38.507Z,62.32
2023-01-29T17:17:35.950Z,62.34
2023-01-29T17:20:28.828Z,62.39
2023-01-29T17:23:21.501Z,62.33
2023-01-29T17:26:15.408Z,62.40
2023-01-29T17:29:10.856Z,62.37
2023-01-29T17:32:03.044Z,62.39
2023-01-29T17:34:55.188Z,62.43
2023-01-29T17:37:48.219Z,62.39
2023-01-29T17:40:45.139Z,62.45
2023-01-29T17:43:37.838Z,62.39
2023-01-29T17:46:29.960Z,62.35
2023-01-29T17:49:25.587Z,62.38
2023-01-29T17:52:17.652Z,62.39
2023-01-29T17:55:11.301Z,62.48
2023-01-29T17:58:03.475Z,62.52
2023-01-29T18:00:56.339Z,62.69
2023-01-29T18:03:48.582Z,62.65
2023-01-29T18:06:43.095Z,62.61
2023-01-29T18:09:35.241Z,62.66
2023-01-29T18:12:27.641Z,62.74
2023-01-29T18:15:20.281Z,62.84
2023-01-29T18:18:03.090Z,62.75
2023-01-29T18:20:56.147Z,62.86
2023-01-29T18:23:48.368Z,64.47
2023-01-29T18:26:40.797Z,64.51
2023-01-29T18:29:32.900Z,63.74
2023-01-29T18:32:25.495Z,63.74
2023-01-29T18:35:18.250Z,63.76
2023-01-29T18:37:59.685Z,63.86
2023-01-29T18:40:51.805Z,63.99
2023-01-29T18:43:44.384Z,64.06
2023-01-29T18:46:36.679Z,65.34
2023-01-29T18:49:29.121Z,65.66
2023-01-29T18:52:21.267Z,65.36
2023-01-29T18:55:13.554Z,65.30
2023-01-29T18:58:26.624Z,65.26
2023-01-29T19:01:17.793Z,65.35
2023-01-29T19:04:10.042Z,65.20
2023-01-29T19:07:02.333Z,66.06
2023-01-29T19:09:54.948Z,67.64
2023-01-29T19:12:47.888Z,68.09
2023-01-29T19:15:45.164Z,68.31
2023-01-29T19:18:38.743Z,68.17
2023-01-29T19:21:39.105Z,67.98
2023-01-29T19:24:14.903Z,68.02
2023-01-29T19:26:46.985Z,68.00
2023-01-29T19:29:30.002Z,68.32
2023-01-29T19:32:22.819Z,68.40
2023-01-29T19:35:15.129Z,68.11
2023-01-29T19:38:07.471Z,68.28
2023-01-29T19:41:01.827Z,68.49
2023-01-29T19:43:45.856Z,68.66
2023-01-29T19:46:39.143Z,68.73
2023-01-29T19:49:34.091Z,68.75
2023-01-29T19:52:50.141Z,68.92
2023-01-29T19:55:31.798Z,68.85
2023-01-29T19:58:24.906Z,69.00
2023-01-29T20:01:19.280Z,69.07
2023-01-29T20:04:00.532Z,69.43
2023-01-29T20:06:52.911Z,69.57
2023-01-29T20:09:44.995Z,69.53
2023-01-29T20:12:37.059Z,69.78
2023-01-29T20:15:29.408Z,69.63
2023-01-29T20:18:22.146Z,69.44
2023-01-29T20:21:16.393Z,69.35
2023-01-29T20:24:12.405Z,69.27
2023-01-29T20:27:03.015Z,69.07
2023-01-29T20:29:55.530Z,68.87
2023-01-29T20:32:47.630Z,68.87
2023-01-29T20:35:40.372Z,68.96
2023-01-29T20:38:34.598Z,69.22
2023-01-29T20:41:27.726Z,69.09
2023-01-29T20:44:20.376Z,68.74
2023-01-29T20:47:14.594Z,68.39
2023-01-29T20:49:51.992Z,68.31
2023-01-29T20:52:44.804Z,68.29
2023-01-29T20:55:37.065Z,68.43
2023-01-29T20:58:12.309Z,68.05
2023-01-29T21:01:09.610Z,68.07
2023-01-29T21:04:01.752Z,67.93
2023-01-29T21:06:54.127Z,67.95
2023-01-29T21:09:29.163Z,67.96
2023-01-29T21:12:21.316Z,68.20
2023-01-29T21:14:53.204Z,68.35
2023-01-29T21:17:45.295Z,68.20
2023-01-29T21:20:37.656Z,68.19
2023-01-29T21:23:29.846Z,68.18
2023-01-29T21:26:23.257Z,68.32
2023-01-29T21:29:16.253Z,68.56
2023-01-29T21:32:09.258Z,68.43
2023-01-29T21:35:01.472Z,68.51
2023-01-29T21:37:53.687Z,68.42
2023-01-29T21:40:45.614Z,68.30
2023-01-29T21:43:38.943Z,68.40
2023-01-29T21:46:31.061Z,68.34
2023-01-29T21:49:23.241Z,68.34
2023-01-29T21:52:16.461Z,68.28
2023-01-29T21:55:09.626Z,68.31
2023-01-29T21:58:02.359Z,68.20
2023-01-29T22:00:54.477Z,68.31
2023-01-29T22:03:47.519Z,68.05
2023-01-29T22:06:39.805Z,68.11
2023-01-29T22:09:31.906Z,68.17
2023-01-29T22:12:24.252Z,68.08
2023-01-29T22:15:16.865Z,68.05
2023-01-29T22:18:09.089Z,68.08
2023-01-29T22:21:02.648Z,68.24
2023-01-29T22:23:54.764Z,68.14
2023-01-29T22:26:37.492Z,68.10
2023-01-29T22:29:29.885Z,67.92
2023-01-29T22:32:22.117Z,67.96
2023-01-29T22:35:14.383Z,67.62
2023-01-29T22:37:56.196Z,67.65
2023-01-29T22:40:53.069Z,67.88
2023-01-29T22:43:45.199Z,67.80
2023-01-29T22:46:37.311Z,67.85
2023-01-29T22:49:30.375Z,67.53
2023-01-29T22:52:24.356Z,67.38
2023-01-29T22:55:16.525Z,67.47
2023-01-29T22:58:08.936Z,67.39
2023-01-29T23:01:01.098Z,67.35
2023-01-29T23:03:53.244Z,67.34
2023-01-29T23:06:45.406Z,66.91
2023-01-29T23:09:37.516Z,66.97
2023-01-29T23:12:30.103Z,67.19
2023-01-29T23:15:22.188Z,67.31
2023-01-29T23:18:14.283Z,67.09
2023-01-29T23:21:06.723Z,66.74
2023-01-29T23:24:00.489Z,66.79
2023-01-29T23:27:21.642Z,66.72
2023-01-29T23:30:15.245Z,66.67
2023-01-29T23:33:08.344Z,66.41
2023-01-29T23:36:01.293Z,66.50
2023-01-29T23:38:53.602Z,66.47
2023-01-29T23:41:46.151Z,66.51
2023-01-29T23:44:40.115Z,66.46
2023-01-29T23:47:17.515Z,66.49
2023-01-29T23:50:11.482Z,66.16
2023-01-29T23:53:03.606Z,66.40
2023-01-29T23:56:03.666Z,66.15
2023-01-29T23:58:41.027Z,66.16
